Abbey Dell, Indiana
Current Conditions -  °F | °C
As of 2:15 PM on Sunday 21 Dec 2014 (Local Time) from KDCY Reporting Station
Clear Clear  
Wind Chill:   Ceiling: Unl
Heat Index:   Visibility: 10mi
Dew Point: -2°   Wind: 5mph
Humidity: 66%   Direction: 100°E
Pressure: 30.17"   Gusts: NA
Location:  38.6165°N, 86.6265°W
Report Text: KDCY 211915Z AUTO 10004KT 10SM CLR 04/M02 A3017 RMK AO2 T00401019
Loading
Personal Weather Stations






























Interactive Weather Map New forecast layout! Learn more

10-Day Weather Forecast

Advertisements
Track Severe Weather on mobile